Rensselaer, IN

5:46 PM CST on February 06, 2016 (GMT -0600)
Jasper County | | Change Station
CLOSE
Current Station
Airport
Location: Rensselaer,
Elevation: 696 ft
Nearby Weather Stations

Elev 696 ft 40.95 °N, 87.18 °W | Updated 11 minutes ago

Clear
Clear
36 °F
Feels Like 32 °F
N
5
Wind Variable Wind from South

Today
High -- | Low -- °F
--% Chance of Precip.
Yesterday
High -- | Low -- °F
Precip. -- in
Pressure 30.18 in
Visibility 10.0 miles
Clouds Clear
Windchill 32 °F
Dew Point 28 °F
Humidity 75%
Rainfall 0.00 in
Snow Depth Not available.
6:54 AM 5:11 PM
Waning Crescent, 3% visible
METAR KRZL 062335Z AUTO 19004KT 10SM CLR 02/M02 A3018 RMK AO2
Pressure 30.18 in
Visibility 10.0 miles
Clouds Clear
Windchill 32 °F
Dew Point 28 °F
Humidity 75%
Rainfall 0.00 in
Snow Depth Not available.
6:54 AM 5:11 PM
Waning Crescent, 3% visible
METAR KRZL 062335Z AUTO 19004KT 10SM CLR 02/M02 A3018 RMK AO2

10-Day Weather Forecast

Almanac

Astronomy

Feb. 06, 2016 Rise Set
Actual Time
Civil Twilight
Nautical Twilight
Astronomical Twilight
Moon
Length of Visible Light
Length of Day
Tomorrow will be .
, % of the Moon is Illuminated

Today's Extremes

State Highs State Lows

Community

WunderPhotos

Upload Photos

1,891,098 photos uploaded!

WunderBlog® & News

Nearby

Air Quality

  Air Quality AQ Index Pollutant
Not available.

Snow Depth

Station Depth Elevation

Earthquake Activity

City Distance Mag. Time & Date
Minimum magnitude displayed is 2.5.

Coastal Water Temperatures

Place Temperature

Stations

Nearby Weather Stations

Station Location Temp. Windchill Dew Point Humidity Wind Precip. Elev Updated Type
                   

Watches & Warnings

There are currently no watches in effect.